Flight Track Log - Related Links

Times and Time Zones

All times are in EDT time to prevent confusion due to time zone crossing. See the N804ER flight status page for this flight to view local times or setup timezone preferences in your user account.

Time Position Orientation Groundspeed Altitude Reporting Facility
EDT Latitude Longitude Course Direction KTS MPH feet Rate Location/Type
Fri 06:57:53 PM 33.8167 -118.3667 304° West 75 86 1,300  Level Southern California TRACON
Fri 06:58:53 PM 33.8333 -118.3833 320° Northwest 87 100 2,000 651 Climbing Southern California TRACON
Fri 06:59:16 PM 33.8300 -118.3864 217° Southwest 87 100 2,200 776 Climbing Los Angeles Center
Fri 07:00:18 PM 33.8417 -118.3606 61° Northeast 84 97 3,100 720 Climbing Los Angeles Center
Fri 07:01:21 PM 33.8594 -118.3531 19° North 100 115 3,700 528 Climbing Los Angeles Center
Fri 07:02:23 PM 33.8819 -118.3700 328° Northwest 97 112 4,200 194 Climbing Los Angeles Center
Fri 07:03:00 PM 33.8842 -118.5143 304° West  Level FlightAware Approximate
Fri 07:03:25 PM 33.9108 -118.3897 330° Northwest 106 122 4,100  Level Los Angeles Center
Fri 07:04:27 PM 33.9428 -118.4108 331° Northwest 119 137 4,200  Climbing Los Angeles Center
Fri 07:05:29 PM 33.9786 -118.4372 329° Northwest 124 143 4,100 -48 Descending Los Angeles Center
Fri 07:06:31 PM 34.0086 -118.4583 330° Northwest 126 145 4,100  Level Los Angeles Center
Fri 07:07:33 PM 34.0289 -118.4817 316° Northwest 122 140 4,100  Level Los Angeles Center
Fri 07:08:35 PM 34.0581 -118.5167 315° West 120 138 4,100 -48 Level Los Angeles Center
Fri 07:09:37 PM 34.0831 -118.5503 312° West 123 142 4,000  Descending Los Angeles Center
Fri 07:10:40 PM 34.1033 -118.5750 315° West 123 142 4,100 48 Climbing Los Angeles Center
Fri 07:11:42 PM 34.1300 -118.6111 312° West 121 139 4,100 48 Level Los Angeles Center
Fri 07:12:44 PM 34.1544 -118.6392 316° Northwest 121 139 4,200 48 Climbing Los Angeles Center
Fri 07:13:46 PM 34.1783 -118.6633 320° Northwest 118 136 4,200  Level Los Angeles Center
Fri 07:14:48 PM 34.2006 -118.6914 314° West 116 133 4,200  Level Los Angeles Center
Fri 07:15:12 PM 34.2053 -118.7042 294° West 121 139 4,200 -83 Level Los Angeles Center
Fri 07:16:00 PM 34.2144 -118.7353 290° West 117 135 4,100 -60 Descending Los Angeles Center
Fri 07:16:52 PM 34.2150 -118.7706 271° West 116 133 4,100 -149 Level Los Angeles Center
Fri 07:18:01 PM 34.2092 -118.8072 259° West 109 125 3,800 -323 Descending Los Angeles Center
Fri 07:19:02 PM 34.2097 -118.8486 271° West 115 132 3,400 -359 Descending Los Angeles Center
Fri 07:19:58 PM 34.2128 -118.8839 276° West 121 139 3,100 -254 Descending Los Angeles Center
Fri 07:21:00 PM 34.2131 -118.9200 271° West 118 136 2,900 -144 Descending Los Angeles Center
Fri 07:22:03 PM 34.2111 -118.9536 266° West 116 133 2,800 -458 Descending Los Angeles Center
Fri 07:22:58 PM 34.2097 -118.9736 265° West 73 84 2,000 -569 Descending Los Angeles Center
Fri 07:23:59 PM 34.2117 -119.0014 275° West 77 89 1,700 -295 Descending Los Angeles Center

Login

Don't have an account? Register now (free) for customized features, flight alerts, and more!